createdAt,value
2018-03-06T00:00:10.898Z,36.55
2018-03-06T00:02:38.453Z,36.13
2018-03-06T00:05:06.044Z,36.47
2018-03-06T00:07:34.383Z,37.47
2018-03-06T00:10:01.971Z,37.50
2018-03-06T00:12:30.314Z,38.00
2018-03-06T00:14:57.901Z,38.63
2018-03-06T00:17:25.449Z,38.40
2018-03-06T00:19:53.009Z,37.28
2018-03-06T00:22:20.627Z,39.05
2018-03-06T00:24:48.195Z,36.20
2018-03-06T00:27:15.773Z,36.78
2018-03-06T00:29:43.393Z,37.95
2018-03-06T00:32:11.724Z,34.95
2018-03-06T00:34:39.292Z,35.88
2018-03-06T00:37:06.882Z,36.55
2018-03-06T00:39:35.234Z,36.58
2018-03-06T00:42:02.851Z,40.92
2018-03-06T00:44:30.441Z,38.28
2018-03-06T00:46:58.019Z,39.20
2018-03-06T00:49:25.590Z,36.85
2018-03-06T00:51:53.166Z,39.63
2018-03-06T00:54:20.762Z,40.00
2018-03-06T00:56:48.349Z,38.75
2018-03-06T00:59:15.917Z,39.78
2018-03-06T01:01:43.514Z,44.40
2018-03-06T01:04:11.838Z,46.67
2018-03-06T01:06:39.407Z,42.95
2018-03-06T01:09:07.035Z,42.40
2018-03-06T01:11:34.601Z,42.75
2018-03-06T01:14:02.183Z,44.35
2018-03-06T01:16:29.741Z,44.85
2018-03-06T01:18:57.314Z,42.50
2018-03-06T01:21:24.888Z,43.80
2018-03-06T01:23:52.454Z,43.08
2018-03-06T01:26:20.036Z,44.40
2018-03-06T01:28:48.390Z,48.00
2018-03-06T01:31:15.997Z,47.50
2018-03-06T01:33:43.559Z,46.13
2018-03-06T01:36:11.357Z,45.67
2018-03-06T01:38:38.960Z,45.80
2018-03-06T01:41:07.301Z,48.75
2018-03-06T01:43:34.893Z,46.25
2018-03-06T01:46:02.451Z,43.45
2018-03-06T01:48:30.819Z,44.70
2018-03-06T01:50:59.182Z,49.25
2018-03-06T01:53:26.768Z,45.80
2018-03-06T01:55:55.125Z,46.92
2018-03-06T01:58:22.771Z,47.83
2018-03-06T02:00:50.329Z,45.58
2018-03-06T02:03:17.920Z,45.12
2018-03-06T02:05:46.252Z,44.25
2018-03-06T02:08:13.830Z,47.10
2018-03-06T02:10:41.395Z,45.83
2018-03-06T02:13:08.976Z,49.75
2018-03-06T02:15:37.327Z,48.10
2018-03-06T02:18:04.909Z,47.22
2018-03-06T02:20:32.479Z,49.30
2018-03-06T02:23:00.077Z,46.17
2018-03-06T02:25:27.668Z,47.78
2018-03-06T02:27:55.249Z,47.45
2018-03-06T02:30:22.810Z,48.80
2018-03-06T02:32:50.413Z,52.33
2018-03-06T02:35:17.989Z,50.60
2018-03-06T02:37:45.587Z,49.20
2018-03-06T02:40:13.152Z,50.75
2018-03-06T02:42:40.745Z,48.83
2018-03-06T02:45:08.324Z,45.78
2018-03-06T02:47:35.888Z,47.33
2018-03-06T02:50:03.477Z,51.50
2018-03-06T02:52:31.075Z,50.70
2018-03-06T02:54:59.415Z,47.05
2018-03-06T02:57:26.997Z,48.13
2018-03-06T02:59:54.582Z,47.03
2018-03-06T03:02:22.189Z,49.20
2018-03-06T03:04:49.775Z,47.83
2018-03-06T03:07:17.383Z,52.45
2018-03-06T03:09:44.984Z,47.62
2018-03-06T03:12:12.564Z,47.88
2018-03-06T03:14:40.138Z,48.80
2018-03-06T03:17:08.497Z,48.00
2018-03-06T03:19:36.089Z,48.53
2018-03-06T03:22:04.455Z,50.75
2018-03-06T03:24:32.785Z,49.63
2018-03-06T03:27:00.381Z,51.72
2018-03-06T03:29:27.969Z,52.22
2018-03-06T03:31:56.326Z,56.83
2018-03-06T03:34:24.698Z,52.67
2018-03-06T03:36:52.278Z,56.88
2018-03-06T03:39:20.672Z,54.17
2018-03-06T03:41:48.254Z,53.42
2018-03-06T03:44:15.826Z,56.63
2018-03-06T03:46:43.408Z,52.22
2018-03-06T03:49:11.785Z,56.30
2018-03-06T03:51:39.360Z,54.30
2018-03-06T03:54:08.465Z,55.55
2018-03-06T03:56:36.803Z,53.87
2018-03-06T03:59:04.366Z,50.65
2018-03-06T04:01:31.972Z,56.70
2018-03-06T04:04:00.328Z,52.80
2018-03-06T04:06:29.444Z,51.55
2018-03-06T04:08:57.786Z,49.65
2018-03-06T04:11:25.372Z,49.50
2018-03-06T04:13:52.947Z,51.40
2018-03-06T04:16:21.321Z,50.83
2018-03-06T04:18:49.666Z,53.50
2018-03-06T04:21:17.247Z,53.92
2018-03-06T04:23:45.612Z,52.88
2018-03-06T04:26:13.185Z,49.65
2018-03-06T04:28:40.789Z,51.28
2018-03-06T04:31:08.352Z,51.65
2018-03-06T04:33:35.954Z,52.92
2018-03-06T04:36:03.521Z,50.97
2018-03-06T04:38:31.097Z,50.95
2018-03-06T04:40:59.428Z,53.45
2018-03-06T04:43:27.022Z,51.80
2018-03-06T04:45:54.604Z,55.15
2018-03-06T04:48:22.976Z,54.45
2018-03-06T04:50:51.316Z,54.80
2018-03-06T04:53:18.910Z,56.22
2018-03-06T04:55:46.501Z,53.42
2018-03-06T04:58:14.066Z,54.25
2018-03-06T05:00:41.664Z,53.83
2018-03-06T05:03:09.262Z,52.38
2018-03-06T05:05:37.637Z,53.65
2018-03-06T05:08:05.198Z,52.28
2018-03-06T05:10:33.557Z,54.15
2018-03-06T05:13:01.129Z,55.10
2018-03-06T05:15:28.739Z,53.83
2018-03-06T05:17:56.589Z,55.35
2018-03-06T05:20:24.197Z,54.13
2018-03-06T05:22:51.773Z,52.60
2018-03-06T05:25:19.352Z,54.58
2018-03-06T05:27:47.737Z,56.37
2018-03-06T05:30:16.080Z,58.85
2018-03-06T05:32:43.676Z,55.88
2018-03-06T05:35:12.037Z,56.33
2018-03-06T05:37:40.413Z,53.85
2018-03-06T05:40:07.992Z,56.37
2018-03-06T05:42:36.368Z,51.75
2018-03-06T05:45:04.733Z,55.38
2018-03-06T05:47:32.320Z,55.60
2018-03-06T05:49:59.920Z,55.05
2018-03-06T05:52:27.477Z,54.08
2018-03-06T05:54:55.101Z,57.50
2018-03-06T05:57:22.726Z,58.58
2018-03-06T05:59:50.332Z,53.67
2018-03-06T06:02:17.918Z,50.78
2018-03-06T06:04:45.500Z,55.72
2018-03-06T06:07:13.106Z,56.55
2018-03-06T06:09:40.708Z,52.67
2018-03-06T06:12:08.332Z,51.35
2018-03-06T06:14:35.925Z,50.00
2018-03-06T06:17:03.513Z,53.53
2018-03-06T06:19:31.084Z,55.17
2018-03-06T06:21:58.672Z,53.40
2018-03-06T06:24:26.299Z,54.78
2018-03-06T06:26:53.833Z,54.78
2018-03-06T06:29:21.389Z,51.95
2018-03-06T06:31:49.013Z,55.75
2018-03-06T06:34:16.604Z,52.75
2018-03-06T06:36:44.177Z,51.05
2018-03-06T06:39:11.781Z,50.90
2018-03-06T06:41:39.338Z,48.17
2018-03-06T06:44:06.909Z,51.40
2018-03-06T06:46:35.274Z,52.17
2018-03-06T06:49:02.829Z,48.20
2018-03-06T06:51:30.392Z,52.35
2018-03-06T06:53:57.985Z,50.25
2018-03-06T06:56:27.156Z,47.88
2018-03-06T06:58:54.712Z,47.53
2018-03-06T07:01:22.285Z,48.05
2018-03-06T07:03:49.880Z,48.35
2018-03-06T07:06:18.388Z,49.13
2018-03-06T07:08:45.983Z,52.20
2018-03-06T07:11:13.591Z,51.13
2018-03-06T07:13:41.163Z,51.33
2018-03-06T07:16:09.273Z,48.87
2018-03-06T07:18:36.825Z,49.60
2018-03-06T07:21:04.397Z,49.72
2018-03-06T07:23:31.975Z,49.00
2018-03-06T07:26:00.301Z,46.53
2018-03-06T07:28:27.853Z,46.45
2018-03-06T07:30:55.441Z,47.05
2018-03-06T07:33:22.994Z,46.37
2018-03-06T07:35:50.570Z,46.88
2018-03-06T07:38:18.193Z,45.25
2018-03-06T07:40:45.771Z,46.47
2018-03-06T07:43:13.348Z,43.00
2018-03-06T07:45:40.915Z,44.25
2018-03-06T07:48:08.521Z,42.97
2018-03-06T07:50:36.105Z,48.13
2018-03-06T07:53:03.653Z,44.30
2018-03-06T07:55:31.382Z,42.78
2018-03-06T07:57:59.766Z,43.70
2018-03-06T08:00:28.120Z,40.00
2018-03-06T08:02:55.689Z,42.35
2018-03-06T08:05:24.018Z,36.17
2018-03-06T08:07:51.617Z,36.65
2018-03-06T08:10:19.198Z,34.78
2018-03-06T08:12:47.529Z,34.53
2018-03-06T08:15:15.065Z,34.72
2018-03-06T08:17:42.634Z,34.40
2018-03-06T08:20:10.191Z,34.85
2018-03-06T08:22:37.794Z,35.28
2018-03-06T08:25:05.357Z,37.60
2018-03-06T08:27:32.938Z,35.80
2018-03-06T08:30:01.280Z,34.13
2018-03-06T08:32:28.838Z,33.97
2018-03-06T08:34:56.404Z,32.70
2018-03-06T08:37:23.960Z,33.17
2018-03-06T08:39:51.530Z,35.70
2018-03-06T08:42:19.117Z,35.42
2018-03-06T08:44:47.486Z,35.75
2018-03-06T08:47:15.063Z,35.33
2018-03-06T08:49:43.419Z,34.15
2018-03-06T08:52:11.001Z,36.88
2018-03-06T08:54:39.345Z,35.80
2018-03-06T08:57:06.928Z,36.00
2018-03-06T08:59:35.272Z,38.92
2018-03-06T09:02:02.849Z,37.45
2018-03-06T09:04:30.423Z,33.47
2018-03-06T09:06:57.973Z,33.88
2018-03-06T09:09:25.537Z,34.00
2018-03-06T09:11:53.122Z,36.83
2018-03-06T09:14:20.682Z,35.67
2018-03-06T09:16:48.245Z,35.22
2018-03-06T09:19:17.010Z,35.33
2018-03-06T09:21:44.590Z,37.30
2018-03-06T09:24:12.181Z,33.58
2018-03-06T09:26:39.765Z,32.70
2018-03-06T09:29:07.349Z,31.08
2018-03-06T09:31:34.930Z,32.88
2018-03-06T09:34:02.531Z,33.03
2018-03-06T09:36:30.096Z,29.90
2018-03-06T09:38:57.656Z,29.08
2018-03-06T09:41:25.225Z,30.58
2018-03-06T09:43:52.846Z,28.67
2018-03-06T09:46:20.427Z,30.15
2018-03-06T09:48:47.974Z,33.15
2018-03-06T09:51:15.544Z,31.10
2018-03-06T09:53:43.111Z,31.23
2018-03-06T09:56:10.721Z,28.33
2018-03-06T09:58:38.285Z,31.00
2018-03-06T10:01:06.658Z,30.08
2018-03-06T10:03:35.013Z,29.37
2018-03-06T10:06:02.574Z,30.13
2018-03-06T10:08:30.164Z,29.47
2018-03-06T10:10:57.765Z,32.27
2018-03-06T10:13:25.322Z,31.37
2018-03-06T10:15:52.908Z,31.67
2018-03-06T10:18:20.466Z,27.90
2018-03-06T10:20:48.042Z,33.73
2018-03-06T10:23:15.602Z,30.10
2018-03-06T10:25:43.175Z,30.87
2018-03-06T10:28:10.790Z,31.07
2018-03-06T10:30:38.364Z,31.23
2018-03-06T10:33:05.910Z,30.93
2018-03-06T10:35:33.497Z,29.53
2018-03-06T10:38:01.049Z,29.17
2018-03-06T10:40:28.604Z,30.57
2018-03-06T10:42:56.201Z,31.00
2018-03-06T10:45:24.533Z,33.03
2018-03-06T10:47:52.117Z,29.43
2018-03-06T10:50:19.682Z,29.63
2018-03-06T10:52:47.245Z,25.13
2018-03-06T10:55:14.832Z,24.87
2018-03-06T10:57:43.137Z,23.60
2018-03-06T11:00:10.760Z,26.27
2018-03-06T11:02:43.006Z,25.87
2018-03-06T11:05:10.562Z,24.57
2018-03-06T11:07:38.119Z,25.40
2018-03-06T11:10:05.705Z,24.77
2018-03-06T11:12:34.051Z,25.27
2018-03-06T11:15:01.627Z,22.83
2018-03-06T11:17:29.238Z,25.70
2018-03-06T11:19:56.849Z,23.33
2018-03-06T11:22:24.402Z,22.80
2018-03-06T11:24:51.982Z,21.60
2018-03-06T11:27:19.525Z,21.23
2018-03-06T11:29:47.112Z,25.27
2018-03-06T11:32:15.444Z,23.70
2018-03-06T11:34:43.034Z,21.30
2018-03-06T11:37:10.610Z,21.13
2018-03-06T11:39:38.989Z,23.43
2018-03-06T11:42:07.788Z,23.33
2018-03-06T11:44:35.349Z,21.92
2018-03-06T11:47:03.703Z,21.70
2018-03-06T11:49:31.337Z,23.62
2018-03-06T11:51:58.892Z,22.90
2018-03-06T11:54:26.492Z,22.20
2018-03-06T11:56:54.850Z,20.90
2018-03-06T11:59:22.451Z,21.85
2018-03-06T12:01:50.024Z,21.70
2018-03-06T12:04:17.600Z,23.50
2018-03-06T12:06:45.171Z,22.52
2018-03-06T12:09:12.822Z,23.10
2018-03-06T12:11:40.385Z,21.90
2018-03-06T12:14:07.979Z,22.80
2018-03-06T12:16:35.559Z,23.63
2018-03-06T12:19:03.927Z,22.58
2018-03-06T12:21:31.495Z,21.42
2018-03-06T12:23:59.111Z,19.55
2018-03-06T12:26:26.715Z,21.10
2018-03-06T12:28:54.307Z,19.67
2018-03-06T12:31:21.925Z,21.20
2018-03-06T12:33:49.503Z,21.55
2018-03-06T12:36:17.854Z,18.92
2018-03-06T12:38:45.410Z,19.02
2018-03-06T12:41:12.982Z,18.77
2018-03-06T12:43:40.557Z,18.17
2018-03-06T12:46:08.943Z,19.35
2018-03-06T12:48:37.285Z,22.77
2018-03-06T12:51:04.864Z,20.77
2018-03-06T12:53:32.417Z,20.20
2018-03-06T12:56:00.006Z,19.15
2018-03-06T12:58:28.369Z,16.10
2018-03-06T13:00:55.962Z,16.42
2018-03-06T13:03:23.557Z,17.33
2018-03-06T13:05:51.133Z,19.45
2018-03-06T13:08:19.212Z,17.73
2018-03-06T13:10:46.776Z,18.75
2018-03-06T13:13:14.358Z,18.57
2018-03-06T13:15:42.711Z,18.42
2018-03-06T13:18:10.317Z,18.33
2018-03-06T13:20:37.871Z,19.12
2018-03-06T13:23:05.473Z,17.33
2018-03-06T13:25:33.062Z,16.70
2018-03-06T13:28:00.671Z,17.67
2018-03-06T13:30:28.233Z,18.40
2018-03-06T13:32:55.812Z,18.27
2018-03-06T13:35:23.381Z,17.33
2018-03-06T13:37:50.953Z,17.27
2018-03-06T13:40:18.519Z,20.05
2018-03-06T13:42:46.101Z,19.23
2018-03-06T13:45:14.429Z,19.55
2018-03-06T13:47:42.013Z,18.75
2018-03-06T13:50:09.591Z,17.10
2018-03-06T13:52:37.928Z,15.60
2018-03-06T13:55:05.553Z,18.27
2018-03-06T13:57:33.878Z,17.92
2018-03-06T14:00:01.461Z,19.25
2018-03-06T14:02:29.019Z,17.25
2018-03-06T14:04:58.101Z,20.33
2018-03-06T14:07:25.694Z,18.77
2018-03-06T14:09:54.050Z,20.85
2018-03-06T14:12:21.616Z,21.35
2018-03-06T14:14:49.247Z,18.75
2018-03-06T14:17:17.010Z,20.55
2018-03-06T14:19:44.628Z,20.92
2018-03-06T14:22:12.971Z,20.50
2018-03-06T14:24:40.614Z,21.12
2018-03-06T14:27:08.223Z,20.55
2018-03-06T14:29:36.959Z,19.90
2018-03-06T14:32:04.529Z,19.95
2018-03-06T14:34:32.116Z,20.55
2018-03-06T14:36:59.711Z,20.88
2018-03-06T14:39:27.273Z,20.95
2018-03-06T14:41:54.865Z,23.08
2018-03-06T14:44:22.423Z,21.85
2018-03-06T14:46:50.041Z,22.02
2018-03-06T14:49:18.370Z,21.73
2018-03-06T14:51:45.946Z,19.27
2018-03-06T14:54:13.557Z,21.20
2018-03-06T14:56:41.151Z,21.73
2018-03-06T14:59:09.589Z,19.75
2018-03-06T15:01:37.906Z,19.25
2018-03-06T15:04:05.478Z,18.87
2018-03-06T15:06:33.079Z,18.83
2018-03-06T15:09:00.637Z,19.27
2018-03-06T15:11:29.790Z,20.10
2018-03-06T15:13:57.349Z,19.60
2018-03-06T15:16:24.947Z,18.70
2018-03-06T15:18:52.506Z,17.52
2018-03-06T15:21:20.114Z,15.75
2018-03-06T15:23:47.664Z,15.63
2018-03-06T15:26:15.295Z,17.37
2018-03-06T15:28:42.850Z,18.02
2018-03-06T15:31:10.444Z,16.62
2018-03-06T15:33:38.033Z,15.98
2018-03-06T15:36:06.735Z,15.60
2018-03-06T15:38:34.298Z,14.95
2018-03-06T15:41:02.231Z,14.40
2018-03-06T15:43:31.527Z,14.73
2018-03-06T15:45:59.241Z,15.13
2018-03-06T15:48:26.971Z,15.50
2018-03-06T15:50:54.598Z,14.98
2018-03-06T15:53:22.994Z,14.10
2018-03-06T15:55:51.273Z,15.60
2018-03-06T15:58:18.928Z,16.30
2018-03-06T16:00:46.535Z,15.98
2018-03-06T16:03:14.159Z,15.93
2018-03-06T16:05:41.757Z,15.20
2018-03-06T16:08:09.377Z,15.40
2018-03-06T16:10:37.020Z,14.10
2018-03-06T16:13:05.444Z,15.15
2018-03-06T16:15:33.023Z,14.68
2018-03-06T16:18:00.771Z,15.02
2018-03-06T16:20:28.454Z,14.75
2018-03-06T16:22:56.084Z,15.27
2018-03-06T16:25:23.735Z,14.87
2018-03-06T16:27:51.337Z,16.40
2018-03-06T16:30:18.958Z,16.45
2018-03-06T16:32:46.583Z,15.27
2018-03-06T16:35:15.013Z,17.15
2018-03-06T16:37:42.600Z,14.40
2018-03-06T16:40:10.210Z,14.95
2018-03-06T16:42:38.003Z,15.32
2018-03-06T16:45:05.624Z,15.07
2018-03-06T16:47:33.994Z,15.75
2018-03-06T16:50:02.381Z,17.35
2018-03-06T16:52:29.979Z,13.43
2018-03-06T16:54:57.585Z,13.77
2018-03-06T16:57:25.977Z,15.63
2018-03-06T16:59:54.338Z,18.17
2018-03-06T17:02:22.547Z,14.93
2018-03-06T17:04:50.256Z,14.05
2018-03-06T17:07:17.869Z,15.20
2018-03-06T17:09:46.214Z,15.00
2018-03-06T17:12:14.151Z,14.80
2018-03-06T17:14:41.749Z,15.77
2018-03-06T17:17:09.386Z,14.32
2018-03-06T17:19:36.989Z,13.40
2018-03-06T17:22:05.410Z,14.77
2018-03-06T17:24:33.026Z,16.15
2018-03-06T17:27:02.161Z,14.50
2018-03-06T17:29:29.791Z,14.63
2018-03-06T17:31:58.154Z,16.15
2018-03-06T17:34:25.746Z,16.33
2018-03-06T17:36:53.324Z,15.73
2018-03-06T17:39:20.947Z,15.23
2018-03-06T17:41:49.329Z,17.10
2018-03-06T17:44:17.855Z,14.32
2018-03-06T17:46:45.437Z,17.20
2018-03-06T17:49:13.044Z,15.95
2018-03-06T17:51:41.590Z,17.45
2018-03-06T17:54:09.209Z,17.27
2018-03-06T17:56:36.891Z,17.55
2018-03-06T17:59:04.519Z,16.95
2018-03-06T18:01:32.126Z,17.90
2018-03-06T18:03:59.722Z,18.45
2018-03-06T18:06:28.156Z,16.67
2018-03-06T18:08:55.747Z,18.58
2018-03-06T18:11:23.350Z,15.95
2018-03-06T18:13:51.016Z,15.63
2018-03-06T18:16:18.622Z,16.48
2018-03-06T18:18:46.245Z,15.70
2018-03-06T18:21:13.918Z,16.33
2018-03-06T18:23:41.506Z,16.87
2018-03-06T18:26:09.121Z,29.10
2018-03-06T18:28:37.521Z,21.65
2018-03-06T18:31:05.128Z,17.02
2018-03-06T18:33:33.527Z,18.20
2018-03-06T18:36:01.898Z,17.48
2018-03-06T18:38:30.299Z,17.20
2018-03-06T18:40:57.898Z,16.90
2018-03-06T18:43:25.497Z,17.05
2018-03-06T18:45:53.926Z,20.05
2018-03-06T18:48:21.541Z,21.12
2018-03-06T18:51:01.641Z,18.98
2018-03-06T18:53:30.201Z,17.20
2018-03-06T18:55:57.776Z,16.77
2018-03-06T18:58:25.394Z,18.50
2018-03-06T19:01:05.684Z,18.27
2018-03-06T19:03:45.092Z,15.10
2018-03-06T19:06:24.314Z,18.62
2018-03-06T19:08:52.709Z,21.73
2018-03-06T19:11:21.106Z,20.15
2018-03-06T19:13:49.468Z,25.35
2018-03-06T19:16:17.832Z,22.67
2018-03-06T19:18:45.418Z,22.62
2018-03-06T19:21:13.026Z,22.05
2018-03-06T19:23:40.610Z,21.80
2018-03-06T19:26:08.231Z,21.33
2018-03-06T19:28:35.829Z,22.80
2018-03-06T19:31:03.524Z,22.67
2018-03-06T19:33:31.110Z,21.08
2018-03-06T19:35:58.739Z,20.15
2018-03-06T19:38:27.075Z,22.70
2018-03-06T19:40:54.639Z,21.55
2018-03-06T19:43:22.256Z,16.30
2018-03-06T19:45:49.815Z,19.02
2018-03-06T19:48:17.391Z,16.90
2018-03-06T19:50:44.949Z,16.30
2018-03-06T19:53:12.515Z,17.12
2018-03-06T19:55:40.118Z,16.73
2018-03-06T19:58:07.746Z,16.60
2018-03-06T20:00:35.315Z,16.45
2018-03-06T20:03:02.858Z,15.73
2018-03-06T20:05:30.438Z,16.92
2018-03-06T20:07:58.049Z,17.60
2018-03-06T20:10:26.359Z,18.23
2018-03-06T20:12:53.970Z,19.20
2018-03-06T20:15:21.546Z,17.75
2018-03-06T20:17:49.858Z,15.82
2018-03-06T20:20:17.420Z,15.52
2018-03-06T20:22:44.976Z,16.80
2018-03-06T20:25:18.253Z,17.80
2018-03-06T20:27:45.974Z,18.17
2018-03-06T20:30:20.166Z,18.45
2018-03-06T20:32:53.549Z,18.25
2018-03-06T20:35:21.169Z,20.08
2018-03-06T20:37:49.506Z,18.12
2018-03-06T20:40:22.792Z,21.05
2018-03-06T20:42:50.362Z,21.00
2018-03-06T20:45:17.917Z,19.12
2018-03-06T20:47:45.514Z,20.88
2018-03-06T20:50:13.847Z,17.90
2018-03-06T20:52:47.008Z,18.27
2018-03-06T20:55:15.320Z,18.90
2018-03-06T20:57:42.903Z,17.80
2018-03-06T21:00:10.450Z,18.00
2018-03-06T21:02:38.027Z,18.50
2018-03-06T21:05:05.588Z,20.98
2018-03-06T21:07:34.512Z,19.58
2018-03-06T21:10:02.877Z,20.08
2018-03-06T21:12:31.193Z,17.77
2018-03-06T21:14:59.463Z,18.83
2018-03-06T21:17:27.001Z,18.02
2018-03-06T21:19:55.355Z,18.25
2018-03-06T21:22:22.947Z,19.20
2018-03-06T21:24:51.308Z,18.75
2018-03-06T21:27:19.673Z,20.05
2018-03-06T21:29:47.254Z,18.48
2018-03-06T21:32:15.623Z,18.00
2018-03-06T21:34:43.168Z,19.67
2018-03-06T21:37:10.762Z,18.85
2018-03-06T21:39:39.073Z,19.30
2018-03-06T21:42:06.684Z,17.27
2018-03-06T21:44:35.116Z,18.80
2018-03-06T21:47:02.670Z,19.73
2018-03-06T21:49:30.236Z,18.10
2018-03-06T21:51:57.812Z,17.58
2018-03-06T21:54:25.400Z,17.27
2018-03-06T21:56:53.044Z,17.73
2018-03-06T21:59:20.624Z,18.20
2018-03-06T22:01:48.985Z,17.25
2018-03-06T22:04:16.541Z,18.92
2018-03-06T22:06:44.090Z,16.83
2018-03-06T22:09:11.644Z,18.23
2018-03-06T22:11:39.194Z,18.93
2018-03-06T22:14:06.777Z,17.50
2018-03-06T22:16:34.376Z,17.58
2018-03-06T22:19:02.691Z,18.50
2018-03-06T22:21:30.265Z,17.12
2018-03-06T22:23:57.847Z,17.62
2018-03-06T22:26:25.400Z,17.25
2018-03-06T22:28:52.960Z,16.23
2018-03-06T22:31:20.530Z,16.42
2018-03-06T22:33:48.077Z,15.38
2018-03-06T22:36:15.645Z,16.33
2018-03-06T22:38:43.194Z,16.35
2018-03-06T22:41:10.778Z,16.92
2018-03-06T22:43:38.362Z,14.68
2018-03-06T22:46:05.930Z,14.93
2018-03-06T22:48:33.500Z,14.00
2018-03-06T22:51:01.093Z,14.23
2018-03-06T22:53:28.649Z,14.52
2018-03-06T22:55:56.243Z,13.68
2018-03-06T22:58:24.560Z,13.05
2018-03-06T23:00:52.134Z,12.48
2018-03-06T23:03:19.681Z,10.85
2018-03-06T23:05:47.244Z,10.45
2018-03-06T23:08:14.794Z,11.95
2018-03-06T23:10:42.416Z,9.73
2018-03-06T23:13:09.978Z,9.90
2018-03-06T23:15:37.557Z,8.65
2018-03-06T23:18:05.876Z,9.63
2018-03-06T23:20:33.434Z,8.30
2018-03-06T23:23:00.979Z,10.07
2018-03-06T23:25:28.557Z,9.00
2018-03-06T23:30:46.732Z,9.20
2018-03-06T23:33:14.278Z,10.52
2018-03-06T23:35:41.850Z,10.07
2018-03-06T23:38:09.419Z,10.25
2018-03-06T23:40:36.981Z,9.82
2018-03-06T23:43:04.524Z,10.63
2018-03-06T23:45:32.095Z,9.73
2018-03-06T23:47:59.682Z,9.73
2018-03-06T23:50:28.013Z,10.60
2018-03-06T23:52:55.582Z,11.73
2018-03-06T23:55:23.139Z,9.65
2018-03-06T23:57:50.690Z,10.63
